createdAt,value
2022-08-12T00:02:45.237Z,100.00
2022-08-12T00:05:32.024Z,100.00
2022-08-12T00:08:17.391Z,100.00
2022-08-12T00:11:16.417Z,100.00
2022-08-12T00:14:02.221Z,100.00
2022-08-12T00:16:50.131Z,100.00
2022-08-12T00:19:35.649Z,100.00
2022-08-12T00:22:20.764Z,100.00
2022-08-12T00:25:06.783Z,100.00
2022-08-12T00:27:52.356Z,100.00
2022-08-12T00:30:37.761Z,100.00
2022-08-12T00:33:23.067Z,100.00
2022-08-12T00:36:18.692Z,100.00
2022-08-12T00:39:21.906Z,100.00
2022-08-12T00:42:08.814Z,100.00
2022-08-12T00:44:35.326Z,100.00
2022-08-12T00:47:04.192Z,100.00
2022-08-12T00:49:31.571Z,100.00
2022-08-12T00:52:10.275Z,100.00
2022-08-12T00:54:39.010Z,100.00
2022-08-12T00:57:09.895Z,100.00
2022-08-12T00:59:43.406Z,100.00
2022-08-12T01:02:13.678Z,100.00
2022-08-12T01:05:01.740Z,100.00
2022-08-12T01:07:47.794Z,100.00
2022-08-12T01:10:33.966Z,100.00
2022-08-12T01:13:18.273Z,100.00
2022-08-12T01:15:47.717Z,100.00
2022-08-12T01:18:16.373Z,100.00
2022-08-12T01:20:53.440Z,100.00
2022-08-12T01:23:34.368Z,100.00
2022-08-12T01:26:04.268Z,100.00
2022-08-12T01:28:33.463Z,100.00
2022-08-12T01:31:05.127Z,100.00
2022-08-12T01:33:43.464Z,100.00
2022-08-12T01:36:12.952Z,100.00
2022-08-12T01:38:42.728Z,100.00
2022-08-12T01:41:11.668Z,100.00
2022-08-12T01:43:39.550Z,100.00
2022-08-12T01:46:20.126Z,100.00
2022-08-12T01:49:23.518Z,100.00
2022-08-12T01:52:15.508Z,100.00
2022-08-12T01:54:45.851Z,100.00
2022-08-12T01:57:58.264Z,100.00
2022-08-12T02:00:20.318Z,100.00
2022-08-12T02:03:30.826Z,100.00
2022-08-12T02:06:36.262Z,100.00
2022-08-12T02:09:23.255Z,100.00
2022-08-12T02:12:06.301Z,100.00
2022-08-12T02:14:57.399Z,100.00
2022-08-12T02:17:55.029Z,100.00
2022-08-12T02:20:52.254Z,100.00
2022-08-12T02:23:20.685Z,100.00
2022-08-12T02:25:47.716Z,100.00
2022-08-12T02:28:14.457Z,100.00
2022-08-12T02:30:42.758Z,100.00
2022-08-12T02:33:11.351Z,100.00
2022-08-12T02:35:39.760Z,100.00
2022-08-12T02:38:10.285Z,100.00
2022-08-12T02:40:39.838Z,100.00
2022-08-12T02:43:27.674Z,100.00
2022-08-12T02:46:01.412Z,100.00
2022-08-12T02:48:34.256Z,100.00
2022-08-12T02:51:05.244Z,100.00
2022-08-12T02:53:34.311Z,100.00
2022-08-12T02:56:05.316Z,100.00
2022-08-12T02:58:33.701Z,100.00
2022-08-12T03:01:04.791Z,100.00
2022-08-12T03:03:34.017Z,100.00
2022-08-12T03:06:22.009Z,100.00
2022-08-12T03:08:52.581Z,100.00
2022-08-12T03:11:29.306Z,100.00
2022-08-12T03:14:00.683Z,100.00
2022-08-12T03:16:33.141Z,100.00
2022-08-12T03:19:00.531Z,100.00
2022-08-12T03:21:55.397Z,100.00
2022-08-12T03:24:18.525Z,100.00
2022-08-12T03:26:47.293Z,100.00
2022-08-12T03:29:16.434Z,100.00
2022-08-12T03:31:45.466Z,100.00
2022-08-12T03:34:12.756Z,100.00
2022-08-12T03:36:41.807Z,100.00
2022-08-12T03:39:17.896Z,100.00
2022-08-12T03:42:01.623Z,100.00
2022-08-12T03:44:53.547Z,100.00
2022-08-12T03:48:02.293Z,100.00
2022-08-12T03:50:48.894Z,100.00
2022-08-12T03:53:40.637Z,100.00
2022-08-12T03:56:25.875Z,100.00
2022-08-12T03:59:13.225Z,100.00
2022-08-12T04:01:41.266Z,100.00
2022-08-12T04:04:10.827Z,100.00
2022-08-12T04:06:44.885Z,100.00
2022-08-12T04:09:15.545Z,100.00
2022-08-12T04:12:04.193Z,100.00
2022-08-12T04:14:32.659Z,100.00
2022-08-12T04:17:00.108Z,100.00
2022-08-12T04:19:27.193Z,100.00
2022-08-12T04:22:02.071Z,100.00
2022-08-12T04:24:36.758Z,100.00
2022-08-12T04:27:10.204Z,100.00
2022-08-12T04:30:29.374Z,100.00
2022-08-12T04:32:26.166Z,100.00
2022-08-12T04:34:53.223Z,100.00
2022-08-12T04:37:19.699Z,100.00
2022-08-12T04:39:47.330Z,100.00
2022-08-12T04:42:14.111Z,100.00
2022-08-12T04:44:42.133Z,100.00
2022-08-12T04:47:12.594Z,100.00
2022-08-12T04:49:40.763Z,100.00
2022-08-12T04:52:07.340Z,100.00
2022-08-12T04:54:34.484Z,100.00
2022-08-12T04:57:04.139Z,100.00
2022-08-12T04:59:48.422Z,100.00
2022-08-12T05:02:21.500Z,100.00
2022-08-12T05:04:53.291Z,100.00
2022-08-12T05:07:20.694Z,100.00
2022-08-12T05:10:00.265Z,100.00
2022-08-12T05:12:34.922Z,100.00
2022-08-12T05:15:02.068Z,100.00
2022-08-12T05:17:28.727Z,100.00
2022-08-12T05:19:57.124Z,100.00
2022-08-12T05:22:26.079Z,100.00
2022-08-12T05:24:52.822Z,100.00
2022-08-12T05:27:19.369Z,100.00
2022-08-12T05:30:06.205Z,100.00
2022-08-12T05:32:35.439Z,100.00
2022-08-12T05:35:06.877Z,100.00
2022-08-12T05:37:34.988Z,100.00
2022-08-12T05:40:08.372Z,100.00
2022-08-12T05:42:37.761Z,100.00
2022-08-12T05:45:04.917Z,100.00
2022-08-12T05:47:44.883Z,100.00
2022-08-12T05:50:17.962Z,100.00
2022-08-12T05:52:44.367Z,100.00
2022-08-12T05:55:11.705Z,100.00
2022-08-12T05:57:38.969Z,100.00
2022-08-12T06:00:06.771Z,100.00
2022-08-12T06:02:35.314Z,100.00
2022-08-12T06:05:02.624Z,100.00
2022-08-12T06:07:42.800Z,100.00
2022-08-12T06:10:31.696Z,100.00
2022-08-12T06:13:03.504Z,100.00
2022-08-12T06:15:31.492Z,100.00
2022-08-12T06:18:16.215Z,100.00
2022-08-12T06:20:43.531Z,100.00
2022-08-12T06:23:11.764Z,100.00
2022-08-12T06:25:38.534Z,100.00
2022-08-12T06:28:15.778Z,100.00
2022-08-12T06:30:42.352Z,100.00
2022-08-12T06:33:22.244Z,100.00
2022-08-12T06:35:50.710Z,100.00
2022-08-12T06:38:25.758Z,100.00
2022-08-12T06:41:14.346Z,100.00
2022-08-12T06:44:06.225Z,100.00
2022-08-12T06:46:30.897Z,100.00
2022-08-12T06:49:01.669Z,100.00
2022-08-12T06:51:31.237Z,100.00
2022-08-12T06:53:59.380Z,99.60
2022-08-12T06:56:46.023Z,98.16
2022-08-12T06:59:14.571Z,93.08
2022-08-12T07:01:41.009Z,93.99
2022-08-12T07:04:35.799Z,96.15
2022-08-12T07:07:05.621Z,99.20
2022-08-12T07:10:05.199Z,98.80
2022-08-12T07:12:19.930Z,95.49
2022-08-12T07:14:51.846Z,88.07
2022-08-12T07:17:18.836Z,84.07
2022-08-12T07:19:48.552Z,79.92
2022-08-12T07:22:16.059Z,80.30
2022-08-12T07:24:42.671Z,74.15
2022-08-12T07:27:09.678Z,70.11
2022-08-12T07:30:03.515Z,71.21
2022-08-12T07:32:25.519Z,60.48
2022-08-12T07:34:56.160Z,63.74
2022-08-12T07:37:24.200Z,64.58
2022-08-12T07:39:59.800Z,66.05
2022-08-12T07:42:27.987Z,63.79
2022-08-12T07:44:55.928Z,66.05
2022-08-12T07:47:23.192Z,57.06
2022-08-12T07:50:03.294Z,57.25
2022-08-12T07:52:33.018Z,52.45
2022-08-12T07:55:00.029Z,56.12
2022-08-12T07:57:26.447Z,63.63
2022-08-12T07:59:55.511Z,59.10
2022-08-12T08:02:35.988Z,59.19
2022-08-12T08:05:03.865Z,57.99
2022-08-12T08:07:31.047Z,56.03
2022-08-12T08:09:59.916Z,60.97
2022-08-12T08:12:46.845Z,67.00
2022-08-12T08:15:15.114Z,60.69
2022-08-12T08:18:04.939Z,62.50
2022-08-12T08:20:41.066Z,56.29
2022-08-12T08:23:14.918Z,51.46
2022-08-12T08:25:41.496Z,54.61
2022-08-12T08:28:11.651Z,56.02
2022-08-12T08:30:42.670Z,51.24
2022-08-12T08:33:22.943Z,51.25
2022-08-12T08:35:54.438Z,56.68
2022-08-12T08:38:33.170Z,54.64
2022-08-12T08:42:16.165Z,48.24
2022-08-12T08:44:11.243Z,48.81
2022-08-12T08:46:38.801Z,45.03
2022-08-12T08:49:06.075Z,44.49
2022-08-12T08:51:32.819Z,47.96
2022-08-12T08:53:59.576Z,45.45
2022-08-12T08:56:27.166Z,43.45
2022-08-12T08:58:53.622Z,43.38
2022-08-12T09:01:22.431Z,46.11
2022-08-12T09:05:07.236Z,42.58
2022-08-12T09:06:39.543Z,42.46
2022-08-12T09:09:13.306Z,42.35
2022-08-12T09:14:51.377Z,41.79
2022-08-12T09:17:21.279Z,41.85
2022-08-12T09:19:57.514Z,40.98
2022-08-12T09:25:25.709Z,42.08
2022-08-12T09:28:03.713Z,40.72
2022-08-12T09:30:41.979Z,40.72
2022-08-12T09:33:18.874Z,40.96
2022-08-12T09:36:05.021Z,38.69
2022-08-12T09:38:33.634Z,39.53
2022-08-12T09:42:33.480Z,38.99
2022-08-12T09:44:39.332Z,37.99
2022-08-12T09:47:04.015Z,39.93
2022-08-12T09:49:42.261Z,40.44
2022-08-12T09:52:15.582Z,37.00
2022-08-12T09:54:42.898Z,34.40
2022-08-12T09:58:45.471Z,34.31
2022-08-12T10:00:28.134Z,35.06
2022-08-12T10:03:31.955Z,33.93
2022-08-12T10:06:26.755Z,34.92
2022-08-12T10:08:53.745Z,36.15
2022-08-12T10:12:11.306Z,36.15
2022-08-12T10:14:34.921Z,37.90
2022-08-12T10:17:03.469Z,33.85
2022-08-12T10:19:37.779Z,35.83
2022-08-12T10:22:16.929Z,35.62
2022-08-12T10:25:17.436Z,37.11
2022-08-12T10:28:07.572Z,39.09
2022-08-12T10:30:46.912Z,35.40
2022-08-12T10:33:30.797Z,38.71
2022-08-12T10:36:01.088Z,41.60
2022-08-12T10:38:33.459Z,39.95
2022-08-12T10:41:58.830Z,38.99
2022-08-12T10:44:17.340Z,36.02
2022-08-12T10:46:49.940Z,38.00
2022-08-12T10:50:02.220Z,35.47
2022-08-12T10:52:34.683Z,36.19
2022-08-12T10:54:56.102Z,36.88
2022-08-12T10:58:14.974Z,37.66
2022-08-12T11:00:31.207Z,36.21
2022-08-12T11:04:23.647Z,38.86
2022-08-12T11:07:06.727Z,38.83
2022-08-12T11:08:43.396Z,38.53
2022-08-12T11:12:35.331Z,37.67
2022-08-12T11:14:05.524Z,40.44
2022-08-12T11:16:33.469Z,43.40
2022-08-12T11:19:03.173Z,39.10
2022-08-12T11:21:51.217Z,39.36
2022-08-12T11:24:32.048Z,37.31
2022-08-12T11:27:08.062Z,37.47
2022-08-12T11:30:00.467Z,37.05
2022-08-12T11:32:24.665Z,34.22
2022-08-12T11:34:54.859Z,32.96
2022-08-12T11:37:24.800Z,34.18
2022-08-12T11:42:39.596Z,33.36
2022-08-12T11:45:16.307Z,32.52
2022-08-12T11:47:43.678Z,33.37
2022-08-12T11:50:11.811Z,30.34
2022-08-12T11:52:56.392Z,32.72
2022-08-12T11:55:45.352Z,30.42
2022-08-12T12:00:08.853Z,31.11
2022-08-12T12:03:50.062Z,30.09
2022-08-12T12:06:19.097Z,28.95
2022-08-12T12:08:51.071Z,31.12
2022-08-12T12:11:19.858Z,29.04
2022-08-12T12:14:08.149Z,29.21
2022-08-12T12:16:39.584Z,30.36
2022-08-12T12:19:06.796Z,28.61
2022-08-12T12:21:48.636Z,27.80
2022-08-12T12:24:21.068Z,28.17
2022-08-12T12:27:00.065Z,28.88
2022-08-12T12:30:13.602Z,30.03
2022-08-12T12:32:14.892Z,29.61
2022-08-12T12:35:13.178Z,30.68
2022-08-12T12:37:59.069Z,29.72
2022-08-12T12:40:14.513Z,30.57
2022-08-12T12:42:55.627Z,29.78
2022-08-12T12:45:25.932Z,29.41
2022-08-12T12:48:11.568Z,27.67
2022-08-12T12:50:45.263Z,28.54
2022-08-12T12:54:06.919Z,31.53
2022-08-12T12:56:33.858Z,30.71
2022-08-12T12:59:05.075Z,29.25
2022-08-12T13:01:38.405Z,29.59
2022-08-12T13:04:12.379Z,30.06
2022-08-12T13:06:42.271Z,31.26
2022-08-12T13:09:13.400Z,32.21
2022-08-12T13:11:42.061Z,29.37
2022-08-12T13:14:28.671Z,31.34
2022-08-12T13:16:57.768Z,32.95
2022-08-12T13:19:38.597Z,33.06
2022-08-12T13:22:19.959Z,34.13
2022-08-12T13:24:52.090Z,35.54
2022-08-12T13:27:34.941Z,34.77
2022-08-12T13:30:12.686Z,35.39
2022-08-12T13:32:40.934Z,35.10
2022-08-12T13:35:19.757Z,35.22
2022-08-12T13:37:57.159Z,36.09
2022-08-12T13:40:26.565Z,38.17
2022-08-12T13:42:55.891Z,39.39
2022-08-12T13:45:22.778Z,39.38
2022-08-12T13:47:55.993Z,37.57
2022-08-12T13:50:36.242Z,36.84
2022-08-12T13:53:24.005Z,37.32
2022-08-12T13:56:01.980Z,37.83
2022-08-12T13:58:30.159Z,37.84
2022-08-12T14:00:58.028Z,37.81
2022-08-12T14:03:28.701Z,38.16
2022-08-12T14:06:15.202Z,39.04
2022-08-12T14:08:43.260Z,39.32
2022-08-12T14:11:12.367Z,39.39
2022-08-12T14:14:04.713Z,38.31
2022-08-12T14:16:46.720Z,38.29
2022-08-12T14:19:22.757Z,38.41
2022-08-12T14:21:59.393Z,38.42
2022-08-12T14:24:27.368Z,37.83
2022-08-12T14:27:01.998Z,38.10
2022-08-12T14:29:38.123Z,38.10
2022-08-12T14:32:17.920Z,38.08
2022-08-12T14:34:47.008Z,38.44
2022-08-12T14:37:57.414Z,38.85
2022-08-12T14:40:01.110Z,38.33
2022-08-12T14:42:28.157Z,37.81
2022-08-12T14:45:01.224Z,37.65
2022-08-12T14:47:35.292Z,37.94
2022-08-12T14:50:37.838Z,38.49
2022-08-12T14:58:32.089Z,38.78
2022-08-12T15:01:21.380Z,39.61
2022-08-12T15:03:56.781Z,39.38
2022-08-12T15:06:43.083Z,39.51
2022-08-12T15:09:14.014Z,39.17
2022-08-12T15:11:48.723Z,39.42
2022-08-12T15:14:22.254Z,39.56
2022-08-12T15:16:48.820Z,39.56
2022-08-12T15:20:27.786Z,39.28
2022-08-12T15:22:38.455Z,39.33
2022-08-12T15:24:50.207Z,38.99
2022-08-12T15:27:22.464Z,39.06
2022-08-12T15:29:58.708Z,38.95
2022-08-12T15:32:32.228Z,39.40
2022-08-12T15:35:00.757Z,39.42
2022-08-12T15:38:08.702Z,39.29
2022-08-12T15:40:14.442Z,39.74
2022-08-12T15:42:51.099Z,40.51
2022-08-12T15:45:23.779Z,40.89
2022-08-12T15:47:53.534Z,40.40
2022-08-12T15:50:45.545Z,40.62
2022-08-12T15:53:15.619Z,40.55
2022-08-12T15:55:45.733Z,41.23
2022-08-12T15:58:13.372Z,41.52
2022-08-12T16:00:43.339Z,41.23
2022-08-12T16:03:13.643Z,41.89
2022-08-12T16:06:13.032Z,41.53
2022-08-12T16:08:36.251Z,41.52
2022-08-12T16:11:07.383Z,42.17
2022-08-12T16:13:44.268Z,42.20
2022-08-12T16:16:22.812Z,42.63
2022-08-12T16:18:52.670Z,42.80
2022-08-12T16:21:52.746Z,42.25
2022-08-12T16:24:11.659Z,43.17
2022-08-12T16:26:39.419Z,43.57
2022-08-12T16:29:15.056Z,44.20
2022-08-12T16:31:43.324Z,44.21
2022-08-12T16:34:25.499Z,45.08
2022-08-12T16:37:02.016Z,46.05
2022-08-12T16:39:32.810Z,46.29
2022-08-12T16:42:28.326Z,46.59
2022-08-12T16:45:02.522Z,46.87
2022-08-12T16:47:57.256Z,47.59
2022-08-12T16:50:30.933Z,47.79
2022-08-12T16:53:02.077Z,48.17
2022-08-12T16:55:42.358Z,47.79
2022-08-12T16:58:18.581Z,47.78
2022-08-12T17:00:55.242Z,48.09
2022-08-12T17:03:29.209Z,48.09
2022-08-12T17:05:59.221Z,48.57
2022-08-12T17:08:28.962Z,48.67
2022-08-12T17:10:56.459Z,48.85
2022-08-12T17:13:26.220Z,48.78
2022-08-12T17:16:05.175Z,49.04
2022-08-12T17:18:42.838Z,48.27
2022-08-12T17:21:15.250Z,48.12
2022-08-12T17:23:53.734Z,47.71
2022-08-12T17:26:28.509Z,48.80
2022-08-12T17:29:01.656Z,49.12
2022-08-12T17:31:59.589Z,49.27
2022-08-12T17:34:38.380Z,49.49
2022-08-12T17:37:07.989Z,50.67
2022-08-12T17:40:15.209Z,51.71
2022-08-12T17:42:32.626Z,52.66
2022-08-12T17:45:16.947Z,53.99
2022-08-12T17:48:01.215Z,55.24
2022-08-12T17:50:31.996Z,55.58
2022-08-12T17:53:02.487Z,55.86
2022-08-12T17:55:43.858Z,56.20
2022-08-12T17:58:17.351Z,56.58
2022-08-12T18:00:45.901Z,56.96
2022-08-12T18:04:05.458Z,58.07
2022-08-12T18:06:13.751Z,58.29
2022-08-12T18:08:54.946Z,59.13
2022-08-12T18:12:04.479Z,60.03
2022-08-12T18:14:30.279Z,60.50
2022-08-12T18:17:00.357Z,61.19
2022-08-12T18:19:34.096Z,62.25
2022-08-12T18:22:22.259Z,62.94
2022-08-12T18:25:04.773Z,63.33
2022-08-12T18:27:44.181Z,64.08
2022-08-12T18:30:21.056Z,64.68
2022-08-12T18:33:03.492Z,65.72
2022-08-12T18:35:46.384Z,66.86
2022-08-12T18:38:20.515Z,67.97
2022-08-12T18:41:09.764Z,69.35
2022-08-12T18:43:58.789Z,70.24
2022-08-12T18:46:48.909Z,71.53
2022-08-12T18:49:39.178Z,71.89
2022-08-12T18:52:08.627Z,73.37
2022-08-12T18:54:48.778Z,73.66
2022-08-12T18:58:06.405Z,74.44
2022-08-12T19:00:08.051Z,75.30
2022-08-12T19:02:39.697Z,75.85
2022-08-12T19:05:13.277Z,76.25
2022-08-12T19:07:58.099Z,77.49
2022-08-12T19:10:28.439Z,77.58
2022-08-12T19:13:24.051Z,78.79
2022-08-12T19:15:57.986Z,80.05
2022-08-12T19:18:30.219Z,80.67
2022-08-12T19:21:06.517Z,81.86
2022-08-12T19:23:39.071Z,84.09
2022-08-12T19:26:10.814Z,86.43
2022-08-12T19:28:40.020Z,87.46
2022-08-12T19:31:55.821Z,88.00
2022-08-12T19:38:04.513Z,91.42
2022-08-12T19:40:20.577Z,92.29
2022-08-12T19:43:01.426Z,92.75
2022-08-12T19:45:41.869Z,93.34
2022-08-12T19:48:16.907Z,94.56
2022-08-12T19:50:50.662Z,94.23
2022-08-12T19:53:22.770Z,93.33
2022-08-12T19:55:52.918Z,95.38
2022-08-12T19:58:20.880Z,95.33
2022-08-12T20:00:53.189Z,95.29
2022-08-12T20:03:38.348Z,96.45
2022-08-12T20:06:13.899Z,96.66
2022-08-12T20:08:47.890Z,98.05
2022-08-12T20:12:13.334Z,98.28
2022-08-12T20:14:09.521Z,98.84
2022-08-12T20:19:52.147Z,98.94
2022-08-12T20:22:24.704Z,100.00
2022-08-12T20:25:02.129Z,100.00
2022-08-12T20:28:05.037Z,100.00
2022-08-12T20:30:20.786Z,100.00
2022-08-12T20:33:17.681Z,100.00
2022-08-12T20:36:12.934Z,100.00
2022-08-12T20:38:34.546Z,100.00
2022-08-12T20:41:17.858Z,100.00
2022-08-12T20:43:50.016Z,100.00
2022-08-12T20:46:19.164Z,100.00
2022-08-12T20:48:46.970Z,100.00
2022-08-12T20:51:21.977Z,100.00
2022-08-12T20:53:58.639Z,100.00
2022-08-12T20:56:34.903Z,100.00
2022-08-12T20:59:09.543Z,100.00
2022-08-12T21:01:46.926Z,100.00
2022-08-12T21:04:35.114Z,100.00
2022-08-12T21:07:04.675Z,100.00
2022-08-12T21:09:47.567Z,100.00
2022-08-12T21:12:31.340Z,100.00
2022-08-12T21:15:16.628Z,100.00
2022-08-12T21:18:15.500Z,100.00
2022-08-12T21:20:50.923Z,100.00
2022-08-12T21:23:21.282Z,100.00
2022-08-12T21:25:49.123Z,100.00
2022-08-12T21:28:18.905Z,100.00
2022-08-12T21:31:10.462Z,100.00
2022-08-12T21:33:58.446Z,100.00
2022-08-12T21:36:22.569Z,100.00
2022-08-12T21:39:01.890Z,100.00
2022-08-12T21:41:45.841Z,100.00
2022-08-12T21:44:24.117Z,100.00
2022-08-12T21:47:20.233Z,100.00
2022-08-12T21:49:54.666Z,100.00
2022-08-12T21:52:34.158Z,100.00
2022-08-12T21:55:02.437Z,100.00
2022-08-12T21:57:36.543Z,100.00
2022-08-12T22:00:18.991Z,100.00
2022-08-12T22:03:05.224Z,100.00
2022-08-12T22:05:51.652Z,100.00
2022-08-12T22:08:22.099Z,100.00
2022-08-12T22:10:52.348Z,100.00
2022-08-12T22:14:02.614Z,100.00
2022-08-12T22:16:07.629Z,100.00
2022-08-12T22:18:35.149Z,100.00
2022-08-12T22:21:01.571Z,100.00
2022-08-12T22:23:28.617Z,100.00
2022-08-12T22:26:28.936Z,100.00
2022-08-12T22:29:17.226Z,100.00
2022-08-12T22:31:45.862Z,100.00
2022-08-12T22:34:18.214Z,100.00
2022-08-12T22:36:45.735Z,100.00
2022-08-12T22:39:15.693Z,100.00
2022-08-12T22:42:02.848Z,100.00
2022-08-12T22:45:02.164Z,100.00
2022-08-12T22:47:54.205Z,100.00
2022-08-12T22:50:27.449Z,100.00
2022-08-12T22:53:16.413Z,100.00
2022-08-12T22:56:00.722Z,100.00
2022-08-12T22:58:34.042Z,100.00
2022-08-12T23:01:01.796Z,100.00
2022-08-12T23:03:46.899Z,100.00
2022-08-12T23:06:16.623Z,100.00
2022-08-12T23:08:43.495Z,100.00
2022-08-12T23:11:10.173Z,100.00
2022-08-12T23:13:47.248Z,100.00
2022-08-12T23:16:28.362Z,100.00
2022-08-12T23:19:10.775Z,100.00
2022-08-12T23:22:05.240Z,100.00
2022-08-12T23:24:55.599Z,100.00
2022-08-12T23:27:44.476Z,100.00
2022-08-12T23:30:25.255Z,100.00
2022-08-12T23:33:00.716Z,100.00
2022-08-12T23:35:45.943Z,100.00
2022-08-12T23:38:30.354Z,100.00
2022-08-12T23:41:02.311Z,100.00
2022-08-12T23:43:39.095Z,100.00
2022-08-12T23:46:19.179Z,100.00
2022-08-12T23:48:48.172Z,100.00
2022-08-12T23:51:23.405Z,100.00
2022-08-12T23:53:59.774Z,100.00
2022-08-12T23:56:26.762Z,100.00
2022-08-12T23:58:57.501Z,100.00
